createdAt,value
2023-11-19T00:00:14.247Z,97998.44
2023-11-19T00:02:41.965Z,98023.91
2023-11-19T00:05:10.277Z,98009.81
2023-11-19T00:07:37.739Z,98017.16
2023-11-19T00:10:08.065Z,97976.22
2023-11-19T00:12:35.054Z,98002.66
2023-11-19T00:15:02.252Z,98026.53
2023-11-19T00:17:29.047Z,98012.28
2023-11-19T00:19:55.569Z,98013.47
2023-11-19T00:22:22.988Z,98002.47
2023-11-19T00:24:49.687Z,98008.56
2023-11-19T00:27:17.694Z,97995.09
2023-11-19T00:29:45.966Z,97997.34
2023-11-19T00:32:12.982Z,97993.03
2023-11-19T00:34:40.018Z,98003.63
2023-11-19T00:37:06.636Z,97994.25
2023-11-19T00:39:33.205Z,97996.72
2023-11-19T00:41:59.762Z,98003.81
2023-11-19T00:44:26.480Z,98001.16
2023-11-19T00:46:53.079Z,97997.13
2023-11-19T00:49:19.660Z,98002.22
2023-11-19T00:51:46.883Z,98008.75
2023-11-19T00:54:13.462Z,97994.25
2023-11-19T00:56:41.042Z,97984.84
2023-11-19T00:59:07.584Z,97990.56
2023-11-19T01:01:34.241Z,97987.69
2023-11-19T01:04:00.923Z,97964.44
2023-11-19T01:06:32.150Z,97980.75
2023-11-19T01:08:59.621Z,97979.72
2023-11-19T01:11:26.843Z,98011.78
2023-11-19T01:13:53.577Z,97995.81
2023-11-19T01:16:20.751Z,97966.47
2023-11-19T01:18:49.612Z,97988.91
2023-11-19T01:21:16.955Z,97949.78
2023-11-19T01:23:46.913Z,97992.75
2023-11-19T01:26:13.841Z,97996.59
2023-11-19T01:28:51.951Z,97992.78
2023-11-19T01:31:19.369Z,97983.16
2023-11-19T01:33:46.004Z,97960.53
2023-11-19T01:36:15.452Z,97976.81
2023-11-19T01:38:42.655Z,97953.72
2023-11-19T01:41:09.861Z,97953.72
2023-11-19T01:43:39.476Z,97967.44
2023-11-19T01:46:08.100Z,97959.00
2023-11-19T01:48:36.293Z,97961.84
2023-11-19T01:51:04.864Z,97965.72
2023-11-19T01:53:32.943Z,97953.69
2023-11-19T01:55:59.642Z,97952.00
2023-11-19T01:58:26.424Z,97952.44
2023-11-19T02:00:53.171Z,97950.22
2023-11-19T02:03:21.265Z,97944.03
2023-11-19T02:05:50.460Z,97927.94
2023-11-19T02:08:17.221Z,97932.22
2023-11-19T02:10:44.373Z,97926.75
2023-11-19T02:13:11.413Z,97916.97
2023-11-19T02:15:38.174Z,97919.34
2023-11-19T02:18:28.758Z,97924.66
2023-11-19T02:20:56.706Z,97927.50
2023-11-19T02:23:24.030Z,97890.41
2023-11-19T02:26:11.227Z,97929.28
2023-11-19T02:28:38.477Z,97923.50
2023-11-19T02:31:11.747Z,97898.66
2023-11-19T02:33:39.712Z,97913.03
2023-11-19T02:36:08.096Z,97909.59
2023-11-19T02:38:36.707Z,97904.28
2023-11-19T02:41:07.752Z,97909.75
2023-11-19T02:43:35.325Z,97912.25
2023-11-19T02:47:12.598Z,97911.38
2023-11-19T02:49:39.815Z,97903.03
2023-11-19T02:52:07.224Z,97895.06
2023-11-19T02:54:36.084Z,97880.75
2023-11-19T02:57:04.792Z,97896.19
2023-11-19T02:59:40.048Z,97891.69
2023-11-19T03:02:13.068Z,97896.78
2023-11-19T03:04:41.205Z,97901.91
2023-11-19T03:07:10.537Z,97877.00
2023-11-19T03:09:37.225Z,97860.81
2023-11-19T03:12:05.472Z,97874.50
2023-11-19T03:14:36.554Z,97879.00
2023-11-19T03:17:04.625Z,97860.41
2023-11-19T03:19:31.417Z,97876.34
2023-11-19T03:21:58.075Z,97868.75
2023-11-19T03:24:26.116Z,97859.00
2023-11-19T03:26:52.830Z,97857.16
2023-11-19T03:29:19.443Z,97878.06
2023-11-19T03:31:45.984Z,97875.38
2023-11-19T03:34:12.763Z,97878.38
2023-11-19T03:36:40.922Z,97859.69
2023-11-19T03:39:07.764Z,97869.25
2023-11-19T03:44:04.008Z,97857.88
2023-11-19T03:46:31.374Z,97853.75
2023-11-19T03:48:58.488Z,97856.41
2023-11-19T03:51:25.109Z,97855.16
2023-11-19T03:53:52.447Z,97834.25
2023-11-19T03:56:19.208Z,97878.66
2023-11-19T03:58:45.796Z,97859.00
2023-11-19T04:01:16.134Z,97864.88
2023-11-19T04:06:12.434Z,97872.72
2023-11-19T04:08:39.195Z,97845.03
2023-11-19T04:11:06.485Z,97860.47
2023-11-19T04:13:33.578Z,97868.16
2023-11-19T04:16:00.264Z,97863.19
2023-11-19T04:18:27.512Z,97849.91
2023-11-19T04:20:54.090Z,97823.41
2023-11-19T04:23:20.597Z,97870.81
2023-11-19T04:25:47.340Z,97855.47
2023-11-19T04:28:13.932Z,97855.91
2023-11-19T04:30:41.487Z,97861.66
2023-11-19T04:33:08.129Z,97873.56
2023-11-19T04:35:34.719Z,97869.41
2023-11-19T04:38:01.312Z,97864.47
2023-11-19T04:40:27.887Z,97877.47
2023-11-19T04:42:54.487Z,97850.88
2023-11-19T04:45:21.440Z,97844.72
2023-11-19T04:47:47.986Z,97858.25
2023-11-19T04:50:14.586Z,97864.75
2023-11-19T04:52:41.451Z,97843.63
2023-11-19T04:55:08.499Z,97860.00
2023-11-19T04:57:35.114Z,97862.59
2023-11-19T05:00:01.759Z,97865.25
2023-11-19T05:02:28.854Z,97862.38
2023-11-19T05:04:55.623Z,97867.84
2023-11-19T05:07:22.341Z,97864.38
2023-11-19T05:09:49.164Z,97857.56
2023-11-19T05:12:16.141Z,97866.94
2023-11-19T05:14:50.860Z,97863.69
2023-11-19T05:17:19.694Z,97872.25
2023-11-19T05:19:46.839Z,97863.00
2023-11-19T05:22:14.458Z,97858.88
2023-11-19T05:24:42.433Z,97860.28
2023-11-19T05:27:09.177Z,97864.53
2023-11-19T05:29:35.795Z,97859.69
2023-11-19T05:32:02.923Z,97837.31
2023-11-19T05:34:30.137Z,97854.84
2023-11-19T05:36:56.772Z,97847.81
2023-11-19T05:39:23.317Z,97847.38
2023-11-19T05:41:49.906Z,97833.78
2023-11-19T05:44:16.511Z,97834.66
2023-11-19T05:46:44.536Z,97844.16
2023-11-19T05:49:12.338Z,97825.00
2023-11-19T05:51:39.998Z,97843.09
2023-11-19T05:54:11.554Z,97839.56
2023-11-19T05:56:38.224Z,97844.44
2023-11-19T05:59:08.321Z,97857.16
2023-11-19T06:01:36.550Z,97859.72
2023-11-19T06:04:03.505Z,97857.41
2023-11-19T06:06:31.310Z,97863.91
2023-11-19T06:08:57.908Z,97864.06
2023-11-19T06:11:27.930Z,97857.78
2023-11-19T06:13:54.588Z,97880.72
2023-11-19T06:16:21.483Z,97861.59
2023-11-19T06:18:48.161Z,97870.09
2023-11-19T06:21:14.783Z,97876.13
2023-11-19T06:23:41.551Z,97867.41
2023-11-19T06:26:08.265Z,97868.81
2023-11-19T06:28:35.155Z,97874.16
2023-11-19T06:31:01.962Z,97867.22
2023-11-19T06:33:28.604Z,97866.03
2023-11-19T06:35:55.818Z,97888.06
2023-11-19T06:38:24.591Z,97890.06
2023-11-19T06:40:54.599Z,97885.53
2023-11-19T06:43:22.176Z,97888.31
2023-11-19T06:45:48.932Z,97884.50
2023-11-19T06:48:15.508Z,97898.97
2023-11-19T06:50:43.198Z,97901.88
2023-11-19T06:53:11.572Z,97893.44
2023-11-19T06:55:38.506Z,97894.50
2023-11-19T06:58:05.112Z,97893.00
2023-11-19T07:00:33.644Z,97897.28
2023-11-19T07:03:01.419Z,97903.88
2023-11-19T07:05:29.259Z,97900.75
2023-11-19T07:07:56.838Z,97906.88
2023-11-19T07:10:23.468Z,97902.13
2023-11-19T07:12:51.371Z,97906.75
2023-11-19T07:15:18.822Z,97909.44
2023-11-19T07:17:46.553Z,97910.50
2023-11-19T07:20:16.449Z,97890.41
2023-11-19T07:22:47.349Z,97877.88
2023-11-19T07:25:14.712Z,97908.97
2023-11-19T07:27:41.316Z,97912.09
2023-11-19T07:30:11.017Z,97919.06
2023-11-19T07:32:40.282Z,97923.34
2023-11-19T07:35:07.994Z,97913.84
2023-11-19T07:37:35.130Z,97923.56
2023-11-19T07:40:01.709Z,97939.31
2023-11-19T07:42:28.487Z,97944.44
2023-11-19T07:44:56.813Z,97939.53
2023-11-19T07:47:24.477Z,97946.28
2023-11-19T07:49:53.885Z,97949.44
2023-11-19T07:52:22.232Z,97938.34
2023-11-19T07:54:49.271Z,97953.91
2023-11-19T07:57:16.485Z,97953.78
2023-11-19T07:59:43.231Z,97950.16
2023-11-19T08:02:10.295Z,97942.59
2023-11-19T08:04:37.142Z,97934.22
2023-11-19T08:07:04.558Z,97944.06
2023-11-19T08:09:31.889Z,97947.31
2023-11-19T08:11:58.473Z,97954.63
2023-11-19T08:14:25.646Z,97945.44
2023-11-19T08:16:52.337Z,97947.19
2023-11-19T08:19:19.129Z,97942.66
2023-11-19T08:21:46.183Z,97959.72
2023-11-19T08:24:12.790Z,97948.38
2023-11-19T08:26:39.726Z,97962.16
2023-11-19T08:29:07.658Z,97948.84
2023-11-19T08:31:34.225Z,97949.47
2023-11-19T08:34:00.796Z,97952.84
2023-11-19T08:36:29.008Z,97946.34
2023-11-19T08:38:55.691Z,97944.78
2023-11-19T08:41:22.814Z,97949.78
2023-11-19T08:43:51.701Z,97953.38
2023-11-19T08:46:18.500Z,97950.38
2023-11-19T08:48:45.237Z,97948.63
2023-11-19T08:51:12.176Z,97942.00
2023-11-19T08:53:38.690Z,97953.97
2023-11-19T08:56:06.330Z,97944.06
2023-11-19T08:58:33.431Z,97943.09
2023-11-19T09:01:00.255Z,97958.41
2023-11-19T09:03:31.397Z,97961.06
2023-11-19T09:05:58.695Z,97964.88
2023-11-19T09:08:25.404Z,97959.03
2023-11-19T09:10:52.253Z,97958.34
2023-11-19T09:13:18.871Z,97961.50
2023-11-19T09:15:45.813Z,97969.50
2023-11-19T09:18:12.676Z,97958.59
2023-11-19T09:20:40.250Z,97955.38
2023-11-19T09:23:07.845Z,97965.59
2023-11-19T09:28:04.678Z,97965.72
2023-11-19T09:30:31.817Z,97969.28
2023-11-19T09:32:58.534Z,97981.59
2023-11-19T09:35:25.185Z,97972.16
2023-11-19T09:37:51.854Z,97974.50
2023-11-19T09:40:19.630Z,97978.09
2023-11-19T09:42:49.635Z,97985.00
2023-11-19T09:45:17.876Z,97985.50
2023-11-19T09:47:47.572Z,97987.22
2023-11-19T09:50:22.357Z,97980.81
2023-11-19T09:52:48.956Z,97989.59
2023-11-19T09:55:15.943Z,97973.25
2023-11-19T09:57:43.159Z,97977.25
2023-11-19T10:00:11.946Z,97967.34
2023-11-19T10:02:40.723Z,97961.44
2023-11-19T10:05:08.449Z,97965.81
2023-11-19T10:07:35.212Z,97960.72
2023-11-19T10:10:03.172Z,97957.00
2023-11-19T10:12:30.253Z,97952.94
2023-11-19T10:14:59.245Z,97945.72
2023-11-19T10:17:30.727Z,97943.03
2023-11-19T10:19:57.319Z,97941.66
2023-11-19T10:22:25.317Z,97933.44
2023-11-19T10:24:56.515Z,97934.41
2023-11-19T10:27:26.262Z,97930.66
2023-11-19T10:29:53.013Z,97940.75
2023-11-19T10:32:25.567Z,97937.59
2023-11-19T10:35:06.519Z,97941.91
2023-11-19T10:37:33.960Z,97929.53
2023-11-19T10:40:00.861Z,97927.72
2023-11-19T10:42:27.455Z,97939.63
2023-11-19T10:44:53.980Z,97936.31
2023-11-19T10:47:37.762Z,97937.91
2023-11-19T10:50:07.333Z,97936.66
2023-11-19T10:52:34.413Z,97934.94
2023-11-19T10:55:06.044Z,97916.84
2023-11-19T10:57:37.665Z,97944.25
2023-11-19T11:00:11.679Z,97934.25
2023-11-19T11:02:43.076Z,97933.72
2023-11-19T11:05:12.002Z,97933.06
2023-11-19T11:07:42.225Z,97931.47
2023-11-19T11:10:10.890Z,97924.72
2023-11-19T11:12:39.238Z,97931.22
2023-11-19T11:15:08.202Z,97908.78
2023-11-19T11:17:35.253Z,97914.81
2023-11-19T11:20:03.729Z,97896.00
2023-11-19T11:22:44.347Z,97908.84
2023-11-19T11:25:28.142Z,97904.59
2023-11-19T11:28:16.006Z,97908.56
2023-11-19T11:31:11.315Z,97895.63
2023-11-19T11:34:08.715Z,97897.81
2023-11-19T11:37:11.131Z,97885.34
2023-11-19T11:39:37.783Z,97883.47
2023-11-19T11:42:19.221Z,97885.81
2023-11-19T11:45:11.057Z,97891.22
2023-11-19T11:47:43.704Z,97894.97
2023-11-19T11:50:15.063Z,97900.97
2023-11-19T11:53:00.136Z,97900.69
2023-11-19T11:55:34.930Z,97893.75
2023-11-19T11:58:01.937Z,97902.81
2023-11-19T12:00:31.359Z,97900.22
2023-11-19T12:03:00.976Z,97904.44
2023-11-19T12:05:28.828Z,97909.00
2023-11-19T12:08:03.948Z,97908.84
2023-11-19T12:10:34.633Z,97910.28
2023-11-19T12:13:02.207Z,97910.94
2023-11-19T12:15:29.207Z,97904.16
2023-11-19T12:17:56.468Z,97904.13
2023-11-19T12:22:55.088Z,97880.47
2023-11-19T12:25:21.769Z,97896.13
2023-11-19T12:27:50.079Z,97892.06
2023-11-19T12:30:34.734Z,97887.94
2023-11-19T12:33:01.453Z,97888.50
2023-11-19T12:35:28.017Z,97869.66
2023-11-19T12:37:54.696Z,97883.56
2023-11-19T12:40:23.952Z,97842.06
2023-11-19T12:42:54.979Z,97864.66
2023-11-19T12:45:24.699Z,97858.38
2023-11-19T12:47:53.663Z,97860.00
2023-11-19T12:50:20.559Z,97860.63
2023-11-19T12:52:58.154Z,97855.66
2023-11-19T12:55:31.771Z,97856.13
2023-11-19T12:57:59.425Z,97846.88
2023-11-19T13:00:27.825Z,97840.25
2023-11-19T13:02:56.889Z,97851.75
2023-11-19T13:05:27.419Z,97851.81
2023-11-19T13:08:08.378Z,97844.22
2023-11-19T13:10:52.087Z,97851.66
2023-11-19T13:13:18.688Z,97846.41
2023-11-19T13:15:46.058Z,97853.81
2023-11-19T13:18:13.227Z,97825.63
2023-11-19T13:20:39.885Z,97839.22
2023-11-19T13:23:11.408Z,97848.31
2023-11-19T13:25:38.102Z,97843.91
2023-11-19T13:28:05.014Z,97854.84
2023-11-19T13:30:31.707Z,97834.00
2023-11-19T13:32:58.488Z,97833.56
2023-11-19T13:35:25.791Z,97825.53
2023-11-19T13:37:52.969Z,97823.94
2023-11-19T13:40:20.581Z,97831.81
2023-11-19T13:42:47.661Z,97813.75
2023-11-19T13:45:15.981Z,97821.50
2023-11-19T13:47:44.375Z,97816.25
2023-11-19T13:50:15.576Z,97824.28
2023-11-19T13:52:46.189Z,97805.75
2023-11-19T13:55:13.599Z,97818.63
2023-11-19T13:57:41.732Z,97793.78
2023-11-19T14:00:13.805Z,97818.94
2023-11-19T14:02:42.165Z,97801.63
2023-11-19T14:05:12.562Z,97835.34
2023-11-19T14:07:40.380Z,97829.19
2023-11-19T14:10:10.410Z,97839.22
2023-11-19T14:12:38.449Z,97831.94
2023-11-19T14:15:10.484Z,97818.91
2023-11-19T14:17:37.606Z,97841.19
2023-11-19T14:20:13.713Z,97848.03
2023-11-19T14:22:41.426Z,97845.44
2023-11-19T14:25:11.152Z,97849.97
2023-11-19T14:27:41.960Z,97839.69
2023-11-19T14:30:12.253Z,97847.91
2023-11-19T14:32:40.501Z,97847.91
2023-11-19T14:35:07.649Z,97843.59
2023-11-19T14:37:34.666Z,97852.09
2023-11-19T14:40:01.887Z,97853.72
2023-11-19T14:42:28.495Z,97847.25
2023-11-19T14:44:55.258Z,97846.44
2023-11-19T14:47:22.679Z,97847.66
2023-11-19T14:49:49.521Z,97841.56
2023-11-19T14:52:17.862Z,97847.66
2023-11-19T14:54:45.021Z,97841.41
2023-11-19T14:57:11.837Z,97845.00
2023-11-19T14:59:38.878Z,97841.81
2023-11-19T15:02:06.658Z,97834.81
2023-11-19T15:04:35.523Z,97830.75
2023-11-19T15:07:02.335Z,97831.31
2023-11-19T15:09:28.903Z,97824.22
2023-11-19T15:11:55.523Z,97836.09
2023-11-19T15:14:22.249Z,97816.47
2023-11-19T15:16:50.559Z,97818.22
2023-11-19T15:19:17.216Z,97819.88
2023-11-19T15:21:43.784Z,97807.38
2023-11-19T15:24:11.825Z,97822.59
2023-11-19T15:26:38.976Z,97824.63
2023-11-19T15:29:06.154Z,97817.69
2023-11-19T15:31:32.834Z,97818.72
2023-11-19T15:33:59.409Z,97830.34
2023-11-19T15:36:26.106Z,97833.03
2023-11-19T15:38:53.562Z,97839.50
2023-11-19T15:41:20.724Z,97850.41
2023-11-19T15:43:47.566Z,97839.16
2023-11-19T15:46:14.190Z,97858.25
2023-11-19T15:48:42.229Z,97856.97
2023-11-19T15:51:08.759Z,97861.06
2023-11-19T15:53:35.304Z,97866.41
2023-11-19T15:56:02.839Z,97856.78
2023-11-19T15:58:29.539Z,97862.59
2023-11-19T16:00:56.855Z,97859.44
2023-11-19T16:03:23.759Z,97854.25
2023-11-19T16:06:01.188Z,97860.53
2023-11-19T16:08:34.799Z,97850.94
2023-11-19T16:11:01.436Z,97865.22
2023-11-19T16:13:28.002Z,97862.44
2023-11-19T16:15:54.785Z,97863.25
2023-11-19T16:18:22.446Z,97853.50
2023-11-19T16:20:49.084Z,97865.81
2023-11-19T16:23:18.526Z,97870.00
2023-11-19T16:25:45.185Z,97876.16
2023-11-19T16:28:11.706Z,97886.34
2023-11-19T16:30:38.448Z,97875.47
2023-11-19T16:33:06.960Z,97884.50
2023-11-19T16:35:37.789Z,97891.69
2023-11-19T16:38:04.342Z,97901.34
2023-11-19T16:40:30.936Z,97894.63
2023-11-19T16:42:57.912Z,97885.53
2023-11-19T16:45:24.447Z,97895.66
2023-11-19T16:47:51.162Z,97894.00
2023-11-19T16:50:18.071Z,97898.06
2023-11-19T16:52:49.039Z,97903.75
2023-11-19T16:55:16.937Z,97897.84
2023-11-19T16:57:45.087Z,97899.84
2023-11-19T17:00:12.473Z,97899.25
2023-11-19T17:05:18.102Z,97909.91
2023-11-19T17:07:44.731Z,97913.09
2023-11-19T17:10:11.770Z,97915.63
2023-11-19T17:12:38.579Z,97913.19
2023-11-19T17:15:05.966Z,97908.31
2023-11-19T17:17:36.957Z,97918.06
2023-11-19T17:20:05.425Z,97922.13
2023-11-19T17:22:36.644Z,97913.66
2023-11-19T17:25:04.088Z,97922.16
2023-11-19T17:27:31.448Z,97925.59
2023-11-19T17:29:58.915Z,97878.63
2023-11-19T17:32:26.861Z,97921.19
2023-11-19T17:34:54.305Z,97917.28
2023-11-19T17:37:21.006Z,97922.00
2023-11-19T17:39:47.717Z,97920.28
2023-11-19T17:42:14.635Z,97930.78
2023-11-19T17:44:41.238Z,97928.00
2023-11-19T17:47:08.328Z,97929.41
2023-11-19T17:49:35.326Z,97937.53
2023-11-19T17:52:02.571Z,97943.13
2023-11-19T17:54:29.780Z,97943.13
2023-11-19T17:56:58.063Z,97948.09
2023-11-19T17:59:25.937Z,97949.16
2023-11-19T18:01:57.321Z,97937.41
2023-11-19T18:04:28.439Z,97943.81
2023-11-19T18:06:55.888Z,97940.53
2023-11-19T18:09:22.746Z,97946.25
2023-11-19T18:11:53.800Z,97949.50
2023-11-19T18:14:24.385Z,97948.56
2023-11-19T18:16:51.180Z,97943.69
2023-11-19T18:19:19.495Z,97942.16
2023-11-19T18:21:46.981Z,97947.03
2023-11-19T18:24:16.056Z,97938.91
2023-11-19T18:26:44.863Z,97946.47
2023-11-19T18:29:12.311Z,97950.50
2023-11-19T18:31:39.244Z,97961.75
2023-11-19T18:34:06.149Z,97958.84
2023-11-19T18:36:35.996Z,97956.63
2023-11-19T18:39:02.618Z,97959.63
2023-11-19T18:41:30.077Z,97961.38
2023-11-19T18:43:57.370Z,97961.56
2023-11-19T18:46:24.079Z,97933.47
2023-11-19T18:48:52.811Z,97954.59
2023-11-19T18:51:19.438Z,97949.97
2023-11-19T18:53:46.971Z,97952.38
2023-11-19T18:56:14.638Z,97957.06
2023-11-19T18:58:41.298Z,97960.38
2023-11-19T19:01:09.966Z,97962.56
2023-11-19T19:03:37.381Z,97952.22
2023-11-19T19:06:07.284Z,97953.31
2023-11-19T19:08:35.196Z,97936.38
2023-11-19T19:11:01.777Z,97925.28
2023-11-19T19:13:28.386Z,97931.41
2023-11-19T19:15:55.142Z,97934.09
2023-11-19T19:18:21.803Z,97938.94
2023-11-19T19:20:48.525Z,97928.53
2023-11-19T19:23:15.187Z,97945.41
2023-11-19T19:25:41.771Z,97936.13
2023-11-19T19:30:40.071Z,97933.47
2023-11-19T19:33:07.132Z,97933.16
2023-11-19T19:35:33.838Z,97931.06
2023-11-19T19:38:00.699Z,97922.03
2023-11-19T19:40:28.042Z,97887.31
2023-11-19T19:42:56.149Z,97942.16
2023-11-19T19:45:23.754Z,97941.47
2023-11-19T19:47:51.568Z,97942.66
2023-11-19T19:50:18.385Z,97941.00
2023-11-19T19:52:44.987Z,97949.47
2023-11-19T19:55:13.032Z,97939.03
2023-11-19T19:57:39.659Z,97942.72
2023-11-19T20:00:16.149Z,97934.41
2023-11-19T20:02:45.510Z,97934.84
2023-11-19T20:05:13.129Z,97946.78
2023-11-19T20:07:44.394Z,97951.56
2023-11-19T20:10:11.695Z,97936.94
2023-11-19T20:12:39.501Z,97902.47
2023-11-19T20:15:10.611Z,97951.41
2023-11-19T20:17:38.662Z,97949.19
2023-11-19T20:20:06.939Z,97949.53
2023-11-19T20:22:35.264Z,97941.63
2023-11-19T20:25:02.157Z,97932.50
2023-11-19T20:27:29.288Z,97950.84
2023-11-19T20:29:56.039Z,97946.31
2023-11-19T20:32:23.153Z,97953.25
2023-11-19T20:34:49.801Z,97954.91
2023-11-19T20:37:16.401Z,97956.59
2023-11-19T20:39:42.954Z,97942.38
2023-11-19T20:42:09.967Z,97959.63
2023-11-19T20:44:37.721Z,97964.69
2023-11-19T20:47:06.196Z,97960.50
2023-11-19T20:49:33.112Z,97945.50
2023-11-19T20:52:00.930Z,97967.47
2023-11-19T20:57:01.171Z,97947.41
2023-11-19T20:59:27.841Z,97978.38
2023-11-19T21:01:54.685Z,97974.56
2023-11-19T21:04:21.686Z,97986.72
2023-11-19T21:09:21.304Z,97981.91
2023-11-19T21:11:51.618Z,97974.50
2023-11-19T21:14:20.296Z,97981.16
2023-11-19T21:16:46.972Z,97985.69
2023-11-19T21:19:20.105Z,97973.06
2023-11-19T21:21:47.407Z,97974.69
2023-11-19T21:24:14.277Z,97971.78
2023-11-19T21:26:43.312Z,97979.13
2023-11-19T21:29:12.340Z,97974.69
2023-11-19T21:34:08.626Z,97964.16
2023-11-19T21:36:35.248Z,97970.06
2023-11-19T21:39:01.874Z,97955.72
2023-11-19T21:41:28.804Z,97968.59
2023-11-19T21:46:25.745Z,97962.31
2023-11-19T21:48:52.816Z,97965.78
2023-11-19T21:51:20.415Z,97950.25
2023-11-19T21:53:47.257Z,97952.22
2023-11-19T21:56:13.877Z,97949.34
2023-11-19T21:58:40.940Z,97951.56
2023-11-19T22:01:08.342Z,97933.91
2023-11-19T22:03:35.352Z,97953.38
2023-11-19T22:06:02.108Z,97949.53
2023-11-19T22:08:30.526Z,97930.91
2023-11-19T22:10:57.201Z,97934.38
2023-11-19T22:13:24.013Z,97943.09
2023-11-19T22:15:50.749Z,97932.63
2023-11-19T22:18:17.281Z,97932.44
2023-11-19T22:20:43.945Z,97943.16
2023-11-19T22:23:10.524Z,97921.31
2023-11-19T22:25:37.343Z,97941.63
2023-11-19T22:28:04.101Z,97948.72
2023-11-19T22:30:30.796Z,97923.75
2023-11-19T22:32:57.393Z,97945.13
2023-11-19T22:35:24.276Z,97945.69
2023-11-19T22:37:50.880Z,97952.19
2023-11-19T22:40:17.692Z,97958.09
2023-11-19T22:42:44.302Z,97951.28
2023-11-19T22:45:11.171Z,97939.22
2023-11-19T22:47:37.836Z,97940.34
2023-11-19T22:50:08.052Z,97903.44
2023-11-19T22:52:34.846Z,97928.53
2023-11-19T22:55:01.491Z,97932.72
2023-11-19T22:57:28.308Z,97925.75
2023-11-19T22:59:55.013Z,97919.16
2023-11-19T23:02:21.570Z,97927.38
2023-11-19T23:04:48.156Z,97919.84
2023-11-19T23:07:14.966Z,97921.81
2023-11-19T23:09:41.725Z,97939.75
2023-11-19T23:12:08.665Z,97932.88
2023-11-19T23:14:35.272Z,97945.28
2023-11-19T23:17:01.816Z,97939.75
2023-11-19T23:19:28.378Z,97929.41
2023-11-19T23:21:54.912Z,97936.69
2023-11-19T23:24:21.486Z,97916.75
2023-11-19T23:26:48.031Z,97933.75
2023-11-19T23:29:16.586Z,97929.63
2023-11-19T23:31:46.636Z,97920.66
2023-11-19T23:34:13.379Z,97923.94
2023-11-19T23:36:39.959Z,97928.81
2023-11-19T23:39:07.624Z,97936.25
2023-11-19T23:41:34.602Z,97906.25
2023-11-19T23:44:01.167Z,97928.63
2023-11-19T23:46:27.868Z,97918.81
2023-11-19T23:51:26.989Z,97924.56
2023-11-19T23:53:54.835Z,97924.44
2023-11-19T23:56:21.709Z,97894.22
2023-11-19T23:58:49.477Z,97883.38
